Lower Mammoth Reservoir Meter




Date Total AC/FT (AF) CFS (cfs) KGPM (gpm) CFS (cfs) GPM (gpm)
05/01/2018 170.90 4.41 9.83 4,413.00
05/02/2018 193.50 6.10 13.60 6,102.00
05/03/2018 222.70 6.58 14.65 6,577.00
05/04/2018 250.70 6.28 13.98 6,275.00
05/05/2018 278.30 5.94 13.23 5,940.00
05/06/2018 278.30 5.94 13.23 5,940.00
05/07/2018 278.30 5.94 13.23 5,940.00
05/08/2018 278.30 5.94 13.23 5,940.00
05/09/2018 356.70 7.97 17.76 7,969.00
05/10/2018 454.10 10.01 22.30 10,010.00
05/21/2018 989.00 11.09 24.71 11,090.00
05/22/2018 1,042.00 13.04 29.05 13,040.00
05/23/2018 1,095.00 10.07 22.44 10,070.00
05/24/2018 1,136.00 9.19 20.48 9,190.00
05/25/2018 1,176.00 9.11 20.30 9,110.00
05/26/2018 1,217.00 9.53 21.23 9,530.00
05/27/2018 1,260.00 9.96 22.19 9,960.00
05/28/2018 1,307.00 11.23 25.02 11,230.00
05/29/2018 1,358.00 11.28 25.13 11,280.00
05/30/2018 1,405.00 10.55 23.51 10,550.00
05/31/2018 1,453.00 11.06 24.64 11,060.00
Average 0.00 19.23
Maximum 29.05
Minimum 9.83
Total Volume (AF) 0.00 800.62